< Typhoon 198002 1980 Season Typhoon 198004 >
Typhoon 198003 (ELLEN)
General InformationTrack Information on Google MapsDetailed Wind Information || Disaster Info.ResourceGoogle EarthGE AnimationAtom FeedGeoJSON
Detalied Best Track (Time Zone = UTC)
Year Month Day Hour Lat. Long. Pressure (hPa) Wind (kt) Class Image Chart
1980 5 13 00 7.2 144.5 1004 0 2 -- Chart
1980 5 13 06 7.4 144.3 996 40 3 -- Chart
1980 5 13 12 7.6 144.0 992 50 4 -- Chart
1980 5 13 18 7.8 143.5 992 50 4 -- Chart
1980 5 14 00 8.1 143.2 992 50 4 -- Chart
1980 5 14 06 8.5 142.8 992 45 3 -- Chart
1980 5 14 12 8.8 142.6 992 45 3 -- Chart
1980 5 14 18 9.2 142.4 992 45 3 -- Chart
1980 5 15 00 9.5 142.0 975 65 5 -- Chart
1980 5 15 06 10.4 142.1 970 70 5 -- Chart
1980 5 15 12 11.0 142.0 950 70 5 -- Chart
1980 5 15 18 11.5 141.8 935 90 5 -- Chart
1980 5 16 00 12.0 141.4 935 90 5 -- Chart
1980 5 16 06 12.3 141.2 940 90 5 -- Chart
1980 5 16 12 12.6 141.3 940 90 5 -- Chart
1980 5 16 18 12.9 141.4 930 90 5 -- Chart
1980 5 17 00 13.3 141.3 935 90 5 -- Chart
1980 5 17 06 13.7 141.2 935 90 5 -- Chart
1980 5 17 12 14.4 141.0 935 90 5 -- Chart
1980 5 17 18 15.0 140.8 935 90 5 -- Chart
1980 5 18 00 15.6 140.3 940 90 5 -- Chart
1980 5 18 06 16.3 140.0 940 100 5 -- Chart
1980 5 18 12 17.2 139.5 940 105 5 -- Chart
1980 5 18 18 17.7 138.4 945 105 5 -- Chart
1980 5 19 00 18.0 138.3 945 95 5 -- Chart
1980 5 19 06 19.0 137.7 950 90 5 -- Chart
1980 5 19 12 20.1 137.0 955 90 5 -- Chart
1980 5 19 18 21.3 136.8 965 90 5 -- Chart
1980 5 20 00 22.1 135.5 970 75 5 -- Chart
1980 5 20 06 23.5 135.4 970 75 5 -- Chart
1980 5 20 12 25.4 135.3 975 65 5 -- Chart
1980 5 20 18 27.8 136.0 980 60 4 -- Chart
1980 5 21 00 29.8 137.2 980 60 4 -- Chart
1980 5 21 06 31.5 139.1 980 70 5 -- Chart
1980 5 21 12 33.8 141.9 980 70 5 -- Chart
1980 5 21 18 36.0 144.1 980 70 5 -- Chart
1980 5 22 00 38.2 146.8 980 60 4 -- Chart
1980 5 22 06 40.2 148.8 985 50 4 -- Chart
1980 5 22 12 42.0 152.0 984 0 6 -- Chart
1980 5 22 18 44.0 155.0 982 0 6 -- Chart
1980 5 23 00 46.0 157.0 976 0 6 -- Chart
1980 5 23 06 48.0 160.0 970 0 6 -- Chart
1980 5 23 12 49.0 163.0 972 0 6 -- Chart
1980 5 23 18 50.0 166.0 976 0 6 -- Chart
1980 5 24 00 50.0 168.0 976 0 6 -- Chart
1980 5 24 06 49.0 171.0 980 0 6 -- Chart
1980 5 24 12 49.0 175.0 980 0 6 -- Chart
1980 5 24 18 49.0 179.0 980 0 6 -- Chart
1980 5 25 00 50.0 183.0 984 0 6 -- Chart
Japan Meteorological Agency Best Track Data | Correction Date : 1992-10-21
< Typhoon 198002 1980 Season Typhoon 198004 >

Help